createdAt,value
2019-04-06T00:00:48.914Z,6.43
2019-04-06T00:01:48.911Z,6.44
2019-04-06T00:02:48.884Z,6.44
2019-04-06T00:03:48.921Z,6.29
2019-04-06T00:04:48.893Z,6.21
2019-04-06T00:05:48.772Z,6.04
2019-04-06T00:06:48.866Z,6.01
2019-04-06T00:07:48.888Z,6.01
2019-04-06T00:08:48.785Z,6.03
2019-04-06T00:09:48.740Z,5.92
2019-04-06T00:10:48.701Z,5.86
2019-04-06T00:11:48.715Z,5.77
2019-04-06T00:12:48.633Z,5.68
2019-04-06T00:13:48.652Z,5.66
2019-04-06T00:14:48.646Z,5.63
2019-04-06T00:15:48.815Z,5.57
2019-04-06T00:16:48.601Z,5.66
2019-04-06T00:17:49.008Z,5.63
2019-04-06T00:18:48.618Z,5.74
2019-04-06T00:19:48.482Z,5.71
2019-04-06T00:20:48.498Z,5.70
2019-04-06T00:21:48.483Z,5.75
2019-04-06T00:22:48.448Z,5.68
2019-04-06T00:23:48.410Z,5.75
2019-04-06T00:24:48.352Z,5.75
2019-04-06T00:25:48.325Z,5.77
2019-04-06T00:26:48.330Z,5.68
2019-04-06T00:27:48.423Z,5.73
2019-04-06T00:28:48.336Z,5.66
2019-04-06T00:29:48.269Z,5.64
2019-04-06T00:30:48.285Z,5.59
2019-04-06T00:31:48.193Z,5.60
2019-04-06T00:32:48.167Z,5.56
2019-04-06T00:33:48.167Z,5.63
2019-04-06T00:34:48.161Z,5.55
2019-04-06T00:35:48.113Z,5.43
2019-04-06T00:36:48.257Z,5.46
2019-04-06T00:37:48.072Z,5.46
2019-04-06T00:38:48.024Z,5.49
2019-04-06T00:39:48.097Z,5.56
2019-04-06T00:40:48.017Z,5.64
2019-04-06T00:41:48.023Z,5.57
2019-04-06T00:42:47.972Z,5.59
2019-04-06T00:43:48.161Z,5.64
2019-04-06T00:44:47.992Z,5.85
2019-04-06T00:45:47.886Z,5.82
2019-04-06T00:46:47.813Z,5.96
2019-04-06T00:47:47.807Z,5.98
2019-04-06T00:48:47.843Z,5.93
2019-04-06T00:49:48.255Z,5.96
2019-04-06T00:50:47.996Z,5.88
2019-04-06T00:51:49.767Z,5.85
2019-04-06T00:52:47.711Z,5.75
2019-04-06T00:53:47.816Z,5.67
2019-04-06T00:54:47.688Z,5.66
2019-04-06T00:55:55.399Z,5.59
2019-04-06T00:56:47.753Z,5.53
2019-04-06T00:57:47.759Z,5.38
2019-04-06T00:58:48.346Z,5.43
2019-04-06T00:59:47.558Z,5.49
2019-04-06T01:00:47.510Z,5.46
2019-04-06T01:01:48.325Z,5.55
2019-04-06T01:02:47.485Z,5.53
2019-04-06T01:03:47.448Z,5.46
2019-04-06T01:04:47.486Z,5.48
2019-04-06T01:05:47.485Z,5.52
2019-04-06T01:06:47.426Z,5.64
2019-04-06T01:07:47.455Z,5.73
2019-04-06T01:08:47.333Z,5.74
2019-04-06T01:09:47.350Z,5.74
2019-04-06T01:10:47.328Z,5.71
2019-04-06T01:11:47.240Z,5.64
2019-04-06T01:12:47.268Z,5.66
2019-04-06T01:13:47.229Z,5.59
2019-04-06T01:14:48.795Z,5.49
2019-04-06T01:15:47.242Z,5.46
2019-04-06T01:16:47.152Z,5.32
2019-04-06T01:17:47.141Z,5.32
2019-04-06T01:18:47.158Z,5.34
2019-04-06T01:19:47.069Z,5.37
2019-04-06T01:20:47.053Z,5.16
2019-04-06T01:21:47.027Z,5.23
2019-04-06T01:22:47.022Z,5.22
2019-04-06T01:23:47.078Z,5.20
2019-04-06T01:24:46.974Z,5.25
2019-04-06T01:25:46.895Z,5.46
2019-04-06T01:26:46.865Z,5.53
2019-04-06T01:27:46.840Z,5.56
2019-04-06T01:28:46.850Z,5.60
2019-04-06T01:29:46.959Z,5.48
2019-04-06T01:30:46.783Z,5.53
2019-04-06T01:31:46.818Z,5.49
2019-04-06T01:32:46.793Z,5.30
2019-04-06T01:33:46.777Z,5.27
2019-04-06T01:34:46.770Z,5.19
2019-04-06T01:35:46.866Z,5.16
2019-04-06T01:36:46.805Z,5.10
2019-04-06T01:37:46.710Z,5.02
2019-04-06T01:38:46.796Z,4.95
2019-04-06T01:39:46.635Z,4.91
2019-04-06T01:40:46.578Z,4.84
2019-04-06T01:41:46.586Z,4.83
2019-04-06T01:42:46.577Z,4.75
2019-04-06T01:43:46.565Z,4.70
2019-04-06T01:44:46.534Z,4.69
2019-04-06T01:45:46.471Z,4.64
2019-04-06T01:46:46.433Z,4.59
2019-04-06T01:47:46.366Z,4.57
2019-04-06T01:48:46.433Z,4.55
2019-04-06T01:49:46.418Z,4.57
2019-04-06T01:50:46.386Z,4.50
2019-04-06T01:51:46.359Z,4.44
2019-04-06T01:52:46.315Z,4.54
2019-04-06T01:53:46.282Z,4.47
2019-04-06T01:54:46.274Z,4.54
2019-04-06T01:55:46.214Z,4.55
2019-04-06T01:56:46.205Z,4.59
2019-04-06T01:57:46.135Z,4.52
2019-04-06T01:58:46.203Z,4.50
2019-04-06T01:59:46.189Z,4.37
2019-04-06T02:00:46.060Z,4.29
2019-04-06T02:01:46.196Z,4.26
2019-04-06T02:02:46.058Z,4.22
2019-04-06T02:03:46.063Z,4.22
2019-04-06T02:04:46.184Z,4.03
2019-04-06T02:05:46.121Z,4.03
2019-04-06T02:06:46.093Z,3.94
2019-04-06T02:07:46.006Z,3.97
2019-04-06T02:08:45.924Z,3.90
2019-04-06T02:09:45.891Z,3.88
2019-04-06T02:10:45.835Z,3.80
2019-04-06T02:11:45.828Z,3.88
2019-04-06T02:12:45.814Z,3.94
2019-04-06T02:13:45.803Z,3.94
2019-04-06T02:14:45.785Z,4.07
2019-04-06T02:15:45.775Z,4.07
2019-04-06T02:16:45.824Z,3.96
2019-04-06T02:17:45.714Z,4.01
2019-04-06T02:18:45.763Z,3.96
2019-04-06T02:19:45.641Z,3.94
2019-04-06T02:20:45.621Z,3.88
2019-04-06T02:21:45.617Z,3.79
2019-04-06T02:22:45.566Z,3.86
2019-04-06T02:23:45.618Z,3.97
2019-04-06T02:24:45.518Z,3.97
2019-04-06T02:25:45.528Z,4.14
2019-04-06T02:26:45.478Z,4.22
2019-04-06T02:27:45.459Z,4.12
2019-04-06T02:28:45.450Z,4.06
2019-04-06T02:29:45.519Z,4.06
2019-04-06T02:30:45.376Z,3.97
2019-04-06T02:31:45.531Z,4.00
2019-04-06T02:32:45.441Z,3.92
2019-04-06T02:33:45.441Z,3.96
2019-04-06T02:34:45.366Z,3.88
2019-04-06T02:35:45.299Z,3.82
2019-04-06T02:36:45.260Z,3.85
2019-04-06T02:37:45.240Z,3.72
2019-04-06T02:38:45.267Z,3.68
2019-04-06T02:39:45.157Z,3.49
2019-04-06T02:40:45.136Z,3.40
2019-04-06T02:41:45.169Z,3.34
2019-04-06T02:42:45.392Z,3.36
2019-04-06T02:43:45.192Z,3.21
2019-04-06T02:44:45.143Z,3.10
2019-04-06T02:45:45.086Z,3.21
2019-04-06T02:46:44.999Z,3.07
2019-04-06T02:47:45.090Z,3.07
2019-04-06T02:48:44.932Z,3.00
2019-04-06T02:49:44.960Z,2.94
2019-04-06T02:50:45.041Z,3.03
2019-04-06T02:51:44.943Z,3.00
2019-04-06T02:52:44.919Z,3.07
2019-04-06T02:53:44.866Z,3.03
2019-04-06T02:54:44.840Z,3.05
2019-04-06T02:55:44.943Z,3.02
2019-04-06T02:56:47.344Z,3.03
2019-04-06T02:57:44.817Z,3.02
2019-04-06T02:58:44.740Z,2.92
2019-04-06T02:59:44.796Z,3.06
2019-04-06T03:00:44.670Z,3.07
2019-04-06T03:01:44.712Z,3.12
2019-04-06T03:02:44.653Z,3.21
2019-04-06T03:03:44.620Z,3.39
2019-04-06T03:04:44.715Z,3.28
2019-04-06T03:05:44.530Z,3.28
2019-04-06T03:06:44.562Z,3.23
2019-04-06T03:07:44.616Z,3.13
2019-04-06T03:08:44.499Z,3.21
2019-04-06T03:09:44.530Z,3.24
2019-04-06T03:10:44.544Z,3.27
2019-04-06T03:11:44.523Z,3.40
2019-04-06T03:12:44.396Z,3.34
2019-04-06T03:13:44.371Z,3.33
2019-04-06T03:14:44.876Z,3.39
2019-04-06T03:15:44.470Z,3.33
2019-04-06T03:16:44.285Z,3.24
2019-04-06T03:17:44.362Z,3.20
2019-04-06T03:18:44.499Z,3.06
2019-04-06T03:19:44.221Z,2.97
2019-04-06T03:20:44.180Z,2.85
2019-04-06T03:21:44.199Z,2.82
2019-04-06T03:22:44.178Z,2.69
2019-04-06T03:23:51.106Z,2.67
2019-04-06T03:24:44.144Z,2.76
2019-04-06T03:25:44.123Z,2.85
2019-04-06T03:26:44.072Z,2.92
2019-04-06T03:27:44.015Z,3.06
2019-04-06T03:28:44.000Z,3.07
2019-04-06T03:29:56.405Z,3.00
2019-04-06T03:30:43.939Z,2.92
2019-04-06T03:31:43.955Z,2.81
2019-04-06T03:32:44.009Z,2.84
2019-04-06T03:33:44.143Z,2.76
2019-04-06T03:34:43.919Z,2.74
2019-04-06T03:35:48.261Z,2.76
2019-04-06T03:36:43.736Z,2.84
2019-04-06T03:37:43.875Z,2.89
2019-04-06T03:38:43.723Z,2.89
2019-04-06T03:39:43.733Z,2.88
2019-04-06T03:40:43.674Z,2.92
2019-04-06T03:41:43.750Z,2.87
2019-04-06T03:42:43.679Z,2.77
2019-04-06T03:43:43.650Z,2.74
2019-04-06T03:44:43.661Z,2.69
2019-04-06T03:45:43.713Z,2.55
2019-04-06T03:46:43.649Z,2.44
2019-04-06T03:47:43.627Z,2.48
2019-04-06T03:48:44.056Z,2.56
2019-04-06T03:49:43.513Z,2.51
2019-04-06T03:50:43.478Z,2.56
2019-04-06T03:51:43.481Z,2.58
2019-04-06T03:52:43.388Z,2.79
2019-04-06T03:53:43.455Z,2.82
2019-04-06T03:54:43.390Z,2.76
2019-04-06T03:55:43.334Z,2.84
2019-04-06T03:56:43.326Z,2.76
2019-04-06T03:57:43.339Z,2.61
2019-04-06T03:58:43.634Z,2.52
2019-04-06T03:59:43.213Z,2.48
2019-04-06T04:00:43.183Z,2.40
2019-04-06T04:01:43.206Z,2.37
2019-04-06T04:02:43.267Z,2.41
2019-04-06T04:03:43.170Z,2.38
2019-04-06T04:04:43.114Z,2.37
2019-04-06T04:05:43.088Z,2.33
2019-04-06T04:06:43.070Z,2.35
2019-04-06T04:07:43.032Z,2.37
2019-04-06T04:08:43.081Z,2.48
2019-04-06T04:09:42.980Z,2.46
2019-04-06T04:10:43.301Z,2.37
2019-04-06T04:11:42.929Z,2.37
2019-04-06T04:12:42.876Z,2.41
2019-04-06T04:13:42.962Z,2.31
2019-04-06T04:14:42.953Z,2.33
2019-04-06T04:15:42.872Z,2.22
2019-04-06T04:16:42.876Z,2.27
2019-04-06T04:17:42.786Z,2.22
2019-04-06T04:18:42.834Z,2.16
2019-04-06T04:19:42.798Z,2.19
2019-04-06T04:20:42.877Z,2.09
2019-04-06T04:21:42.724Z,1.99
2019-04-06T04:22:42.921Z,2.04
2019-04-06T04:23:42.623Z,1.89
2019-04-06T04:24:42.658Z,1.97
2019-04-06T04:25:42.586Z,1.94
2019-04-06T04:26:42.598Z,1.97
2019-04-06T04:27:42.535Z,2.08
2019-04-06T04:28:42.786Z,2.16
2019-04-06T04:29:42.533Z,2.23
2019-04-06T04:30:42.510Z,2.17
2019-04-06T04:31:42.528Z,2.17
2019-04-06T04:32:42.471Z,2.16
2019-04-06T04:33:42.717Z,2.09
2019-04-06T04:34:42.363Z,2.02
2019-04-06T04:35:42.461Z,1.97
2019-04-06T04:36:42.546Z,1.97
2019-04-06T04:37:42.300Z,2.06
2019-04-06T04:38:42.287Z,2.02
2019-04-06T04:39:42.284Z,2.06
2019-04-06T04:40:42.283Z,2.10
2019-04-06T04:41:42.198Z,2.12
2019-04-06T04:42:42.453Z,1.94
2019-04-06T04:43:42.193Z,1.90
2019-04-06T04:44:42.183Z,2.09
2019-04-06T04:45:42.104Z,2.08
2019-04-06T04:46:42.148Z,2.17
2019-04-06T04:47:42.064Z,2.19
2019-04-06T04:48:42.055Z,2.20
2019-04-06T04:49:42.036Z,2.22
2019-04-06T04:50:41.982Z,2.35
2019-04-06T04:51:41.937Z,2.40
2019-04-06T04:52:41.939Z,2.41
2019-04-06T04:53:41.927Z,2.49
2019-04-06T04:54:41.892Z,2.46
2019-04-06T04:55:41.949Z,2.35
2019-04-06T04:56:41.880Z,2.23
2019-04-06T04:57:44.861Z,2.27
2019-04-06T04:58:41.729Z,2.15
2019-04-06T04:59:41.770Z,2.19
2019-04-06T05:00:41.701Z,2.26
2019-04-06T05:01:41.665Z,2.30
2019-04-06T05:02:41.709Z,2.22
2019-04-06T05:03:41.764Z,2.33
2019-04-06T05:04:41.607Z,2.41
2019-04-06T05:05:41.590Z,2.48
2019-04-06T05:06:41.693Z,2.40
2019-04-06T05:07:41.602Z,2.33
2019-04-06T05:08:41.569Z,2.27
2019-04-06T05:09:41.488Z,2.16
2019-04-06T05:10:41.577Z,2.15
2019-04-06T05:11:41.415Z,2.35
2019-04-06T05:12:41.378Z,2.51
2019-04-06T05:13:41.386Z,2.59
2019-04-06T05:14:41.435Z,2.67
2019-04-06T05:15:41.310Z,2.70
2019-04-06T05:16:41.335Z,2.59
2019-04-06T05:17:41.302Z,2.56
2019-04-06T05:18:41.400Z,2.45
2019-04-06T05:19:41.284Z,2.34
2019-04-06T05:22:04.532Z,2.34
2019-04-06T05:23:04.551Z,2.37
2019-04-06T05:24:04.363Z,2.23
2019-04-06T05:25:04.403Z,2.30
2019-04-06T05:26:04.248Z,2.30
2019-04-06T05:27:04.134Z,2.23
2019-04-06T05:28:04.152Z,2.30
2019-04-06T05:29:04.053Z,2.26
2019-04-06T05:30:04.034Z,2.19
2019-04-06T05:31:04.062Z,2.15
2019-04-06T05:32:03.991Z,2.20
2019-04-06T05:33:03.931Z,2.27
2019-04-06T05:34:04.056Z,2.30
2019-04-06T05:35:03.917Z,2.41
2019-04-06T05:36:04.066Z,2.52
2019-04-06T05:37:03.853Z,2.64
2019-04-06T05:38:03.824Z,2.71
2019-04-06T05:39:03.780Z,2.73
2019-04-06T05:40:03.799Z,2.79
2019-04-06T05:41:03.758Z,2.85
2019-04-06T05:42:03.768Z,2.79
2019-04-06T05:43:03.697Z,2.84
2019-04-06T05:44:03.692Z,2.85
2019-04-06T05:45:03.783Z,2.87
2019-04-06T05:46:03.613Z,2.92
2019-04-06T05:47:03.592Z,2.92
2019-04-06T05:48:03.578Z,2.92
2019-04-06T05:49:03.536Z,2.97
2019-04-06T05:50:03.513Z,2.98
2019-04-06T05:51:03.798Z,3.05
2019-04-06T05:52:03.514Z,3.06
2019-04-06T05:53:03.476Z,3.23
2019-04-06T05:54:03.465Z,3.33
2019-04-06T05:55:03.410Z,3.46
2019-04-06T05:56:03.541Z,3.64
2019-04-06T05:57:03.364Z,3.57
2019-04-06T05:58:04.693Z,3.62
2019-04-06T05:59:03.392Z,3.65
2019-04-06T06:00:03.469Z,3.76
2019-04-06T06:01:04.093Z,3.78
2019-04-06T06:02:03.251Z,3.71
2019-04-06T06:03:03.251Z,3.82
2019-04-06T06:04:03.200Z,3.72
2019-04-06T06:05:03.535Z,3.85
2019-04-06T06:06:03.123Z,3.96
2019-04-06T06:07:03.107Z,3.90
2019-04-06T06:08:03.104Z,4.03
2019-04-06T06:09:03.165Z,4.08
2019-04-06T06:10:03.051Z,4.15
2019-04-06T06:11:03.018Z,4.34
2019-04-06T06:12:02.986Z,4.46
2019-04-06T06:13:02.990Z,4.64
2019-04-06T06:14:02.974Z,4.76
2019-04-06T06:15:02.948Z,4.94
2019-04-06T06:16:02.914Z,5.12
2019-04-06T06:17:02.850Z,5.30
2019-04-06T06:18:03.135Z,5.31
2019-04-06T06:19:02.810Z,5.55
2019-04-06T06:20:02.831Z,5.71
2019-04-06T06:21:02.812Z,5.81
2019-04-06T06:22:02.923Z,6.03
2019-04-06T06:23:02.713Z,6.13
2019-04-06T06:24:02.684Z,6.07
2019-04-06T06:25:03.058Z,6.26
2019-04-06T06:26:02.665Z,6.50
2019-04-06T06:27:02.615Z,6.61
2019-04-06T06:28:13.308Z,6.83
2019-04-06T06:29:02.608Z,6.90
2019-04-06T06:30:02.556Z,6.98
2019-04-06T06:31:02.541Z,6.91
2019-04-06T06:32:02.520Z,7.02
2019-04-06T06:33:02.502Z,7.17
2019-04-06T06:34:02.506Z,7.27
2019-04-06T06:35:02.469Z,7.49
2019-04-06T06:36:02.412Z,7.47
2019-04-06T06:37:02.396Z,7.49
2019-04-06T06:38:02.374Z,7.55
2019-04-06T06:39:02.363Z,7.53
2019-04-06T06:40:02.313Z,7.45
2019-04-06T06:41:02.300Z,7.56
2019-04-06T06:42:02.274Z,7.52
2019-04-06T06:43:02.276Z,7.67
2019-04-06T06:44:02.231Z,7.69
2019-04-06T06:45:02.247Z,7.87
2019-04-06T06:46:02.213Z,7.84
2019-04-06T06:47:02.180Z,7.75
2019-04-06T06:48:02.161Z,7.66
2019-04-06T06:49:02.330Z,7.62
2019-04-06T06:50:02.094Z,7.87
2019-04-06T06:51:02.091Z,7.94
2019-04-06T06:52:02.056Z,7.96
2019-04-06T06:53:02.034Z,7.97
2019-04-06T06:54:02.033Z,7.97
2019-04-06T06:55:02.036Z,7.97
2019-04-06T06:56:02.002Z,7.93
2019-04-06T06:57:02.222Z,7.96
2019-04-06T06:58:01.937Z,8.14
2019-04-06T06:59:01.906Z,8.14
2019-04-06T07:00:01.883Z,8.18
2019-04-06T07:01:03.213Z,8.25
2019-04-06T07:02:01.850Z,8.25
2019-04-06T07:03:02.053Z,8.28
2019-04-06T07:04:01.802Z,8.25
2019-04-06T07:05:02.080Z,8.28
2019-04-06T07:06:01.761Z,8.26
2019-04-06T07:07:01.755Z,8.32
2019-04-06T07:08:01.711Z,8.29
2019-04-06T07:09:01.694Z,8.30
2019-04-06T07:10:05.690Z,8.30
2019-04-06T07:11:01.672Z,8.36
2019-04-06T07:12:01.628Z,8.26
2019-04-06T07:13:01.626Z,8.35
2019-04-06T07:14:01.611Z,8.58
2019-04-06T07:15:01.568Z,8.58
2019-04-06T07:16:01.578Z,8.78
2019-04-06T07:17:01.548Z,8.94
2019-04-06T07:18:01.509Z,9.01
2019-04-06T07:19:01.697Z,9.10
2019-04-06T07:20:01.624Z,8.97
2019-04-06T07:21:01.601Z,9.10
2019-04-06T07:22:01.455Z,9.13
2019-04-06T07:23:01.410Z,8.99
2019-04-06T07:24:01.382Z,9.15
2019-04-06T07:25:01.446Z,9.13
2019-04-06T07:26:01.463Z,9.24
2019-04-06T07:27:01.330Z,9.18
2019-04-06T07:28:01.302Z,9.18
2019-04-06T07:29:01.294Z,9.21
2019-04-06T07:30:01.258Z,9.27
2019-04-06T07:31:01.236Z,9.35
2019-04-06T07:32:01.226Z,9.34
2019-04-06T07:33:01.200Z,9.46
2019-04-06T07:34:01.180Z,9.61
2019-04-06T07:35:01.351Z,9.88
2019-04-06T07:36:01.253Z,10.03
2019-04-06T07:37:01.197Z,10.18
2019-04-06T07:38:01.115Z,10.34
2019-04-06T07:39:01.089Z,10.53
2019-04-06T07:40:01.099Z,10.60
2019-04-06T07:41:01.056Z,10.62
2019-04-06T07:42:01.051Z,10.76
2019-04-06T07:43:01.058Z,10.89
2019-04-06T07:44:00.993Z,10.92
2019-04-06T07:45:00.983Z,10.80
2019-04-06T07:46:00.945Z,10.81
2019-04-06T07:47:00.925Z,10.77
2019-04-06T07:48:01.046Z,10.66
2019-04-06T07:49:08.424Z,10.68
2019-04-06T07:50:00.887Z,10.86
2019-04-06T07:51:00.862Z,10.81
2019-04-06T07:52:00.833Z,11.01
2019-04-06T07:53:00.816Z,11.16
2019-04-06T07:54:00.798Z,11.56
2019-04-06T07:55:00.800Z,11.75
2019-04-06T07:56:00.761Z,12.16
2019-04-06T07:57:00.975Z,12.44
2019-04-06T07:58:00.718Z,12.67
2019-04-06T07:59:00.708Z,12.77
2019-04-06T08:00:00.681Z,12.85
2019-04-06T08:01:00.670Z,13.32
2019-04-06T08:02:00.770Z,13.51
2019-04-06T08:03:00.651Z,13.55
2019-04-06T08:04:00.620Z,13.54
2019-04-06T08:05:00.610Z,13.55
2019-04-06T08:06:00.598Z,13.43
2019-04-06T08:07:00.549Z,13.56
2019-04-06T08:08:00.555Z,13.62
2019-04-06T08:09:00.562Z,13.49
2019-04-06T08:10:00.514Z,13.20
2019-04-06T08:11:00.495Z,13.14
2019-04-06T08:12:00.476Z,13.11
2019-04-06T08:13:00.460Z,13.32
2019-04-06T08:14:00.463Z,13.55
2019-04-06T08:15:00.455Z,13.96
2019-04-06T08:16:00.479Z,14.43
2019-04-06T08:17:00.396Z,14.12
2019-04-06T08:18:00.403Z,13.74
2019-04-06T08:19:00.368Z,13.83
2019-04-06T08:20:00.563Z,13.95
2019-04-06T08:21:00.358Z,14.43
2019-04-06T08:22:00.334Z,15.02
2019-04-06T08:23:00.301Z,15.66
2019-04-06T08:24:00.288Z,15.96
2019-04-06T08:25:00.281Z,16.26
2019-04-06T08:26:00.264Z,16.38
2019-04-06T08:27:00.250Z,16.75
2019-04-06T08:28:00.227Z,16.49
2019-04-06T08:29:02.434Z,16.71
2019-04-06T08:30:00.195Z,16.90
2019-04-06T08:31:00.185Z,16.48
2019-04-06T08:32:00.172Z,16.22
2019-04-06T08:33:00.182Z,16.63
2019-04-06T08:34:00.371Z,16.42
2019-04-06T08:35:00.139Z,15.64
2019-04-06T08:36:00.343Z,15.19
2019-04-06T08:37:00.154Z,14.71
2019-04-06T08:38:00.071Z,14.38
2019-04-06T08:39:00.305Z,14.21
2019-04-06T08:40:00.061Z,14.32
2019-04-06T08:41:00.030Z,14.37
2019-04-06T08:42:00.020Z,14.35
2019-04-06T08:43:00.007Z,14.39
2019-04-06T08:44:00.103Z,14.19
2019-04-06T08:45:00.049Z,14.31
2019-04-06T08:45:59.963Z,14.54
2019-04-06T08:46:59.939Z,14.71
2019-04-06T08:47:59.936Z,14.75
2019-04-06T08:49:00.006Z,14.72
2019-04-06T08:49:59.904Z,14.83
2019-04-06T08:51:00.053Z,14.75
2019-04-06T08:51:59.887Z,14.60
2019-04-06T08:52:59.917Z,14.20
2019-04-06T08:53:59.843Z,14.12
2019-04-06T08:54:59.923Z,13.89
2019-04-06T08:55:59.983Z,13.96
2019-04-06T08:56:59.794Z,13.98
2019-04-06T08:57:59.780Z,14.09
2019-04-06T08:59:10.127Z,14.20
2019-04-06T08:59:59.796Z,14.28
2019-04-06T09:00:59.775Z,14.52
2019-04-06T09:01:59.940Z,14.27
2019-04-06T09:02:59.713Z,14.42
2019-04-06T09:03:59.718Z,14.14
2019-04-06T09:04:59.691Z,14.37
2019-04-06T09:05:59.963Z,14.61
2019-04-06T09:06:59.645Z,14.68
2019-04-06T09:07:59.652Z,14.88
2019-04-06T09:08:59.753Z,15.57
2019-04-06T09:09:59.625Z,16.44
2019-04-06T09:10:59.628Z,17.08
2019-04-06T09:11:59.583Z,17.85
2019-04-06T09:12:59.562Z,18.31
2019-04-06T09:13:59.577Z,17.92
2019-04-06T09:14:59.564Z,17.43
2019-04-06T09:15:59.772Z,16.81
2019-04-06T09:16:59.529Z,16.63
2019-04-06T09:17:59.499Z,16.65
2019-04-06T09:18:59.506Z,16.48
2019-04-06T09:19:59.471Z,16.80
2019-04-06T09:20:59.460Z,16.42
2019-04-06T09:21:59.437Z,16.03
2019-04-06T09:22:59.612Z,15.85
2019-04-06T09:23:59.416Z,15.72
2019-04-06T09:24:59.403Z,15.82
2019-04-06T09:25:59.422Z,15.67
2019-04-06T09:26:59.413Z,16.26
2019-04-06T09:27:59.365Z,16.70
2019-04-06T09:28:59.620Z,17.44
2019-04-06T09:29:59.339Z,17.73
2019-04-06T09:30:59.323Z,18.12
2019-04-06T09:31:59.307Z,18.42
2019-04-06T09:32:59.298Z,18.55
2019-04-06T09:33:59.288Z,18.28
2019-04-06T09:34:59.398Z,18.10
2019-04-06T09:35:59.264Z,17.29
2019-04-06T09:36:59.270Z,16.88
2019-04-06T09:37:59.238Z,16.38
2019-04-06T09:38:59.538Z,16.15
2019-04-06T09:39:59.217Z,16.26
2019-04-06T09:40:59.436Z,16.48
2019-04-06T09:41:59.262Z,16.40
2019-04-06T09:42:59.177Z,16.38
2019-04-06T09:43:59.204Z,16.25
2019-04-06T09:44:59.292Z,16.09
2019-04-06T09:45:59.393Z,16.09
2019-04-06T09:46:59.170Z,16.16
2019-04-06T09:47:59.122Z,16.37
2019-04-06T09:48:59.235Z,15.85
2019-04-06T09:49:59.094Z,15.63
2019-04-06T09:50:59.334Z,15.39
2019-04-06T09:51:59.091Z,15.52
2019-04-06T09:52:59.058Z,15.45
2019-04-06T09:54:05.747Z,15.52
2019-04-06T09:54:59.040Z,15.54
2019-04-06T09:55:59.042Z,15.74
2019-04-06T09:56:59.266Z,15.84
2019-04-06T09:57:59.004Z,15.89
2019-04-06T09:58:58.994Z,15.92
2019-04-06T09:59:59.005Z,15.88
2019-04-06T10:00:58.965Z,15.86
2019-04-06T10:01:59.051Z,16.16
2019-04-06T10:02:59.017Z,16.14
2019-04-06T10:03:58.930Z,15.79
2019-04-06T10:04:58.911Z,15.81
2019-04-06T10:05:58.902Z,15.89
2019-04-06T10:06:58.886Z,16.07
2019-04-06T10:07:58.907Z,16.12
2019-04-06T10:08:58.863Z,16.16
2019-04-06T10:09:58.856Z,16.18
2019-04-06T10:10:58.843Z,16.40
2019-04-06T10:11:59.095Z,16.41
2019-04-06T10:12:58.937Z,16.56
2019-04-06T10:13:58.802Z,16.73
2019-04-06T10:14:58.790Z,16.85
2019-04-06T10:15:58.779Z,16.85
2019-04-06T10:16:59.061Z,16.44
2019-04-06T10:17:58.761Z,16.31
2019-04-06T10:18:58.927Z,16.31
2019-04-06T10:19:58.749Z,16.38
2019-04-06T10:20:58.722Z,16.40
2019-04-06T10:21:58.706Z,16.37
2019-04-06T10:22:58.722Z,16.48
2019-04-06T10:23:58.680Z,16.35
2019-04-06T10:24:58.667Z,16.42
2019-04-06T10:25:58.789Z,16.34
2019-04-06T10:26:58.653Z,16.03
2019-04-06T10:27:58.631Z,15.86
2019-04-06T10:28:58.621Z,15.75
2019-04-06T10:29:58.626Z,15.76
2019-04-06T10:30:58.603Z,15.70
2019-04-06T10:31:58.813Z,15.70
2019-04-06T10:32:58.595Z,15.88
2019-04-06T10:33:58.591Z,15.86
2019-04-06T10:34:58.555Z,15.93
2019-04-06T10:35:58.611Z,15.61
2019-04-06T10:36:58.808Z,15.45
2019-04-06T10:37:58.790Z,15.27
2019-04-06T10:38:58.502Z,15.30
2019-04-06T10:39:58.494Z,15.41
2019-04-06T10:40:58.713Z,15.39
2019-04-06T10:41:58.759Z,15.48
2019-04-06T10:42:58.452Z,15.45
2019-04-06T10:43:58.439Z,15.41
2019-04-06T10:44:58.427Z,15.42
2019-04-06T10:45:58.437Z,15.52
2019-04-06T10:46:58.401Z,15.60
2019-04-06T10:47:58.385Z,15.70
2019-04-06T10:48:58.376Z,15.86
2019-04-06T10:49:58.361Z,16.01
2019-04-06T10:50:58.498Z,15.93
2019-04-06T10:51:58.337Z,16.26
2019-04-06T10:52:58.331Z,16.48
2019-04-06T10:53:58.389Z,16.50
2019-04-06T10:54:58.290Z,16.65
2019-04-06T10:55:58.281Z,16.70
2019-04-06T10:56:58.281Z,16.98
2019-04-06T10:57:58.256Z,16.96
2019-04-06T10:58:58.250Z,17.22
2019-04-06T11:00:01.437Z,17.54
2019-04-06T11:00:58.214Z,17.81
2019-04-06T11:01:58.214Z,17.87
2019-04-06T11:02:58.202Z,18.00
2019-04-06T11:03:58.407Z,18.39
2019-04-06T11:04:58.180Z,18.70
2019-04-06T11:05:58.172Z,18.79
2019-04-06T11:06:58.157Z,18.34
2019-04-06T11:07:58.456Z,17.82
2019-04-06T11:08:58.131Z,17.79
2019-04-06T11:09:58.131Z,17.73
2019-04-06T11:10:58.115Z,17.84
2019-04-06T11:11:58.709Z,17.87
2019-04-06T11:12:58.369Z,18.34
2019-04-06T11:13:58.414Z,18.15
2019-04-06T11:14:58.070Z,18.04
2019-04-06T11:15:58.082Z,17.88
2019-04-06T11:16:58.057Z,17.66
2019-04-06T11:17:58.052Z,17.63
2019-04-06T11:18:58.042Z,17.62
2019-04-06T11:19:58.284Z,18.03
2019-04-06T11:20:58.047Z,18.24
2019-04-06T11:21:58.108Z,18.15
2019-04-06T11:22:58.026Z,17.95
2019-04-06T11:23:58.170Z,18.06
2019-04-06T11:24:57.991Z,18.44
2019-04-06T11:25:58.228Z,18.57
2019-04-06T11:26:57.991Z,18.42
2019-04-06T11:27:57.962Z,18.54
2019-04-06T11:28:57.953Z,18.43
2019-04-06T11:29:57.946Z,18.59
2019-04-06T11:30:57.947Z,18.54
2019-04-06T11:31:57.957Z,18.64
2019-04-06T11:32:58.157Z,18.33
2019-04-06T11:33:58.175Z,18.21
2019-04-06T11:34:57.911Z,18.07
2019-04-06T11:35:57.911Z,18.36
2019-04-06T11:36:57.914Z,18.49
2019-04-06T11:37:57.928Z,18.83
2019-04-06T11:38:58.111Z,18.67
2019-04-06T11:39:57.880Z,18.70
2019-04-06T11:40:57.887Z,18.82
2019-04-06T11:41:57.873Z,18.99
2019-04-06T11:42:57.868Z,18.97
2019-04-06T11:43:57.857Z,18.76
2019-04-06T11:44:57.853Z,18.40
2019-04-06T11:45:58.176Z,18.33
2019-04-06T11:46:57.846Z,18.43
2019-04-06T11:47:57.850Z,18.22
2019-04-06T11:48:57.861Z,18.21
2019-04-06T11:49:57.828Z,18.13
2019-04-06T11:50:57.828Z,17.85
2019-04-06T11:51:57.809Z,17.70
2019-04-06T11:52:57.850Z,17.55
2019-04-06T11:53:57.810Z,17.50
2019-04-06T11:54:57.790Z,17.54
2019-04-06T11:55:58.045Z,17.46
2019-04-06T11:56:57.809Z,17.36
2019-04-06T11:57:57.815Z,17.30
2019-04-06T11:58:57.884Z,17.20
2019-04-06T11:59:57.761Z,17.32
2019-04-06T12:00:57.748Z,17.29
2019-04-06T12:01:57.761Z,17.03
2019-04-06T12:02:57.726Z,16.83
2019-04-06T12:03:57.982Z,16.62
2019-04-06T12:04:57.717Z,16.56
2019-04-06T12:05:57.740Z,16.55
2019-04-06T12:07:00.466Z,16.71
2019-04-06T12:07:57.720Z,16.70
2019-04-06T12:08:57.669Z,16.89
2019-04-06T12:09:57.656Z,16.95
2019-04-06T12:10:57.643Z,17.06
2019-04-06T12:11:57.649Z,17.08
2019-04-06T12:12:57.634Z,17.13
2019-04-06T12:13:57.643Z,17.17
2019-04-06T12:14:57.652Z,17.15
2019-04-06T12:15:57.678Z,17.38
2019-04-06T12:16:57.635Z,17.94
2019-04-06T12:17:57.704Z,17.74
2019-04-06T12:18:57.557Z,17.87
2019-04-06T12:19:57.543Z,17.88
2019-04-06T12:20:57.534Z,17.73
2019-04-06T12:21:57.553Z,17.74
2019-04-06T12:22:57.623Z,17.62
2019-04-06T12:23:57.513Z,17.63
2019-04-06T12:24:58.087Z,17.53
2019-04-06T12:25:57.480Z,17.44
2019-04-06T12:26:57.477Z,17.46
2019-04-06T12:27:57.683Z,17.63
2019-04-06T12:28:57.725Z,17.54
2019-04-06T12:29:57.568Z,17.69
2019-04-06T12:30:57.420Z,17.44
2019-04-06T12:31:57.410Z,17.53
2019-04-06T12:32:57.398Z,17.48
2019-04-06T12:33:58.002Z,17.50
2019-04-06T12:34:57.382Z,17.17
2019-04-06T12:35:57.378Z,17.17
2019-04-06T12:36:57.359Z,17.15
2019-04-06T12:37:57.340Z,17.14
2019-04-06T12:38:57.337Z,17.18
2019-04-06T12:39:57.337Z,17.33
2019-04-06T12:40:57.308Z,17.50
2019-04-06T12:41:57.322Z,17.44
2019-04-06T12:42:57.370Z,17.29
2019-04-06T12:43:57.705Z,17.30
2019-04-06T12:44:57.623Z,17.38
2019-04-06T12:45:57.251Z,17.57
2019-04-06T12:46:57.611Z,18.03
2019-04-06T12:47:57.345Z,18.40
2019-04-06T12:48:57.245Z,18.65
2019-04-06T12:49:57.276Z,18.86
2019-04-06T12:50:57.213Z,19.01
2019-04-06T12:51:57.294Z,19.31
2019-04-06T12:52:57.172Z,19.24
2019-04-06T12:53:57.173Z,19.25
2019-04-06T12:54:57.154Z,18.95
2019-04-06T12:55:57.143Z,19.08
2019-04-06T12:56:57.394Z,18.95
2019-04-06T12:57:57.173Z,18.73
2019-04-06T12:58:57.121Z,18.50
2019-04-06T12:59:57.127Z,18.55
2019-04-06T13:00:57.098Z,18.36
2019-04-06T13:01:57.113Z,18.28
2019-04-06T13:02:57.472Z,18.33
2019-04-06T13:03:57.084Z,18.25
2019-04-06T13:04:57.065Z,18.13
2019-04-06T13:05:57.665Z,18.03
2019-04-06T13:06:57.049Z,17.94
2019-04-06T13:07:57.184Z,17.88
2019-04-06T13:08:57.173Z,17.70